createdAt,value
2018-09-30T00:00:23.142Z,6.74
2018-09-30T00:01:23.085Z,6.73
2018-09-30T00:02:23.032Z,6.70
2018-09-30T00:03:22.978Z,6.83
2018-09-30T00:04:22.962Z,6.77
2018-09-30T00:05:22.875Z,6.74
2018-09-30T00:06:22.816Z,6.77
2018-09-30T00:07:22.772Z,6.77
2018-09-30T00:08:22.723Z,6.78
2018-09-30T00:09:22.691Z,6.74
2018-09-30T00:10:22.604Z,6.66
2018-09-30T00:11:22.550Z,6.75
2018-09-30T00:12:22.522Z,6.73
2018-09-30T00:13:22.446Z,6.75
2018-09-30T00:14:22.411Z,6.73
2018-09-30T00:15:22.339Z,6.74
2018-09-30T00:16:22.299Z,6.71
2018-09-30T00:17:22.230Z,6.73
2018-09-30T00:18:22.180Z,6.71
2018-09-30T00:19:22.152Z,6.71
2018-09-30T00:20:22.089Z,6.74
2018-09-30T00:21:22.015Z,6.75
2018-09-30T00:22:21.961Z,6.73
2018-09-30T00:23:21.919Z,6.78
2018-09-30T00:24:21.885Z,6.63
2018-09-30T00:25:21.822Z,6.74
2018-09-30T00:26:21.759Z,6.70
2018-09-30T00:27:21.695Z,6.75
2018-09-30T00:28:21.646Z,6.67
2018-09-30T00:29:21.614Z,6.67
2018-09-30T00:30:21.543Z,6.73
2018-09-30T00:31:21.491Z,6.75
2018-09-30T00:32:21.436Z,6.70
2018-09-30T00:33:21.383Z,6.78
2018-09-30T00:34:21.361Z,6.73
2018-09-30T00:35:21.284Z,6.63
2018-09-30T00:36:21.252Z,6.71
2018-09-30T00:37:21.173Z,6.77
2018-09-30T00:38:21.118Z,6.77
2018-09-30T00:39:21.082Z,6.77
2018-09-30T00:40:21.008Z,6.71
2018-09-30T00:41:20.953Z,6.75
2018-09-30T00:42:20.899Z,6.75
2018-09-30T00:43:20.871Z,6.71
2018-09-30T00:44:20.792Z,6.74
2018-09-30T00:45:20.767Z,6.73
2018-09-30T00:46:20.689Z,6.77
2018-09-30T00:47:20.640Z,6.78
2018-09-30T00:48:20.615Z,6.80
2018-09-30T00:49:20.537Z,6.80
2018-09-30T00:50:20.538Z,6.80
2018-09-30T00:51:20.431Z,6.81
2018-09-30T00:52:20.372Z,6.77
2018-09-30T00:53:20.318Z,6.83
2018-09-30T00:54:20.271Z,6.75
2018-09-30T00:55:20.231Z,6.73
2018-09-30T00:56:20.162Z,6.70
2018-09-30T00:57:20.096Z,6.71
2018-09-30T00:58:20.052Z,6.71
2018-09-30T00:59:20.010Z,6.73
2018-09-30T01:00:19.975Z,6.70
2018-09-30T01:01:19.898Z,6.67
2018-09-30T01:02:19.836Z,6.65
2018-09-30T01:03:19.785Z,6.67
2018-09-30T01:04:19.730Z,6.71
2018-09-30T01:05:19.704Z,6.63
2018-09-30T01:06:19.668Z,6.66
2018-09-30T01:07:19.589Z,6.65
2018-09-30T01:08:19.517Z,6.74
2018-09-30T01:09:19.495Z,6.63
2018-09-30T01:10:19.444Z,6.71
2018-09-30T01:11:19.358Z,6.62
2018-09-30T01:12:19.306Z,6.62
2018-09-30T01:13:19.248Z,6.65
2018-09-30T01:14:19.192Z,6.66
2018-09-30T01:15:19.167Z,6.74
2018-09-30T01:16:19.084Z,6.75
2018-09-30T01:17:19.035Z,6.67
2018-09-30T01:18:18.992Z,6.65
2018-09-30T01:19:18.936Z,6.63
2018-09-30T01:20:18.924Z,6.62
2018-09-30T01:21:18.821Z,6.60
2018-09-30T01:22:18.776Z,6.62
2018-09-30T01:23:18.750Z,6.62
2018-09-30T01:24:18.660Z,6.65
2018-09-30T01:25:18.636Z,6.57
2018-09-30T01:26:18.559Z,6.59
2018-09-30T01:27:18.500Z,6.49
2018-09-30T01:28:18.447Z,6.52
2018-09-30T01:29:18.394Z,6.59
2018-09-30T01:30:18.364Z,6.48
2018-09-30T01:31:18.295Z,6.56
2018-09-30T01:32:18.236Z,6.44
2018-09-30T01:33:18.189Z,6.48
2018-09-30T01:34:18.126Z,6.48
2018-09-30T01:35:18.094Z,6.45
2018-09-30T01:36:18.024Z,6.39
2018-09-30T01:37:17.981Z,6.47
2018-09-30T01:38:17.927Z,6.47
2018-09-30T01:39:17.864Z,6.37
2018-09-30T01:40:17.845Z,6.32
2018-09-30T01:41:17.754Z,6.38
2018-09-30T01:42:17.697Z,6.38
2018-09-30T01:43:17.660Z,6.34
2018-09-30T01:44:17.597Z,6.34
2018-09-30T01:45:17.563Z,6.35
2018-09-30T01:46:17.486Z,6.35
2018-09-30T01:47:17.443Z,6.34
2018-09-30T01:48:17.400Z,6.34
2018-09-30T01:49:17.324Z,6.38
2018-09-30T01:50:17.304Z,6.30
2018-09-30T01:51:17.222Z,6.34
2018-09-30T01:52:17.162Z,6.32
2018-09-30T01:53:17.118Z,6.27
2018-09-30T01:54:17.060Z,6.30
2018-09-30T01:55:17.034Z,6.24
2018-09-30T01:56:16.960Z,6.30
2018-09-30T01:57:16.919Z,6.27
2018-09-30T01:58:16.850Z,6.26
2018-09-30T01:59:16.830Z,6.22
2018-09-30T02:00:16.759Z,6.22
2018-09-30T02:01:16.684Z,6.24
2018-09-30T02:02:16.635Z,6.19
2018-09-30T02:03:16.576Z,6.16
2018-09-30T02:04:16.521Z,6.13
2018-09-30T02:05:16.503Z,6.15
2018-09-30T02:06:16.427Z,6.13
2018-09-30T02:07:16.390Z,6.13
2018-09-30T02:08:16.302Z,6.13
2018-09-30T02:09:16.265Z,6.07
2018-09-30T02:10:16.239Z,6.05
2018-09-30T02:11:16.155Z,6.03
2018-09-30T02:12:16.089Z,6.05
2018-09-30T02:13:16.041Z,6.05
2018-09-30T02:14:15.990Z,5.98
2018-09-30T02:15:15.930Z,5.98
2018-09-30T02:16:15.908Z,6.07
2018-09-30T02:17:15.831Z,6.00
2018-09-30T02:18:15.783Z,5.98
2018-09-30T02:19:15.735Z,6.03
2018-09-30T02:20:15.696Z,6.05
2018-09-30T02:21:15.644Z,6.03
2018-09-30T02:22:15.581Z,6.05
2018-09-30T02:23:15.514Z,6.03
2018-09-30T02:24:15.448Z,6.01
2018-09-30T02:25:15.400Z,6.05
2018-09-30T02:26:15.373Z,6.00
2018-09-30T02:27:15.294Z,6.04
2018-09-30T02:28:15.236Z,6.01
2018-09-30T02:29:15.185Z,6.00
2018-09-30T02:30:15.130Z,5.95
2018-09-30T02:31:15.094Z,5.98
2018-09-30T02:32:15.044Z,6.00
2018-09-30T02:33:14.966Z,6.01
2018-09-30T02:34:14.937Z,5.95
2018-09-30T02:35:14.857Z,5.95
2018-09-30T02:36:14.837Z,5.95
2018-09-30T02:37:14.752Z,5.97
2018-09-30T02:38:14.702Z,5.95
2018-09-30T02:39:14.645Z,5.95
2018-09-30T02:40:14.591Z,5.95
2018-09-30T02:41:14.567Z,5.82
2018-09-30T02:42:14.482Z,5.89
2018-09-30T02:43:14.430Z,5.76
2018-09-30T02:44:14.381Z,5.79
2018-09-30T02:45:14.324Z,5.80
2018-09-30T02:46:14.297Z,5.76
2018-09-30T02:47:14.221Z,5.79
2018-09-30T02:48:14.175Z,5.69
2018-09-30T02:49:14.119Z,5.68
2018-09-30T02:50:14.068Z,5.68
2018-09-30T02:51:14.029Z,5.64
2018-09-30T02:52:13.955Z,5.69
2018-09-30T02:53:13.898Z,5.68
2018-09-30T02:54:13.834Z,5.71
2018-09-30T02:55:13.791Z,5.74
2018-09-30T02:56:13.773Z,5.71
2018-09-30T02:57:13.671Z,5.57
2018-09-30T02:58:13.637Z,5.68
2018-09-30T02:59:13.566Z,5.69
2018-09-30T03:00:13.532Z,5.61
2018-09-30T03:01:13.461Z,5.58
2018-09-30T03:02:13.448Z,5.65
2018-09-30T03:03:13.356Z,5.57
2018-09-30T03:04:13.297Z,5.54
2018-09-30T03:05:13.242Z,5.57
2018-09-30T03:06:13.192Z,5.46
2018-09-30T03:07:13.171Z,5.49
2018-09-30T03:08:13.080Z,5.49
2018-09-30T03:09:13.029Z,5.40
2018-09-30T03:10:12.977Z,5.35
2018-09-30T03:11:12.915Z,5.35
2018-09-30T03:12:12.894Z,5.43
2018-09-30T03:13:12.811Z,5.35
2018-09-30T03:14:12.755Z,5.35
2018-09-30T03:15:12.706Z,5.28
2018-09-30T03:16:12.655Z,5.35
2018-09-30T03:17:12.631Z,5.46
2018-09-30T03:18:12.545Z,5.42
2018-09-30T03:19:12.494Z,5.47
2018-09-30T03:20:12.431Z,5.51
2018-09-30T03:21:12.383Z,5.54
2018-09-30T03:22:12.351Z,5.57
2018-09-30T03:23:12.270Z,5.59
2018-09-30T03:24:12.210Z,5.53
2018-09-30T03:25:12.161Z,5.51
2018-09-30T03:26:12.106Z,5.53
2018-09-30T03:27:12.080Z,5.54
2018-09-30T03:28:11.998Z,5.58
2018-09-30T03:29:11.960Z,5.58
2018-09-30T03:30:11.910Z,5.58
2018-09-30T03:31:11.836Z,5.50
2018-09-30T03:32:11.804Z,5.54
2018-09-30T03:33:11.727Z,5.54
2018-09-30T03:34:11.673Z,5.49
2018-09-30T03:35:11.634Z,5.46
2018-09-30T03:36:11.585Z,5.44
2018-09-30T03:37:11.541Z,5.42
2018-09-30T03:38:11.461Z,5.50
2018-09-30T03:39:11.407Z,5.53
2018-09-30T03:40:11.351Z,5.44
2018-09-30T03:41:11.334Z,5.49
2018-09-30T03:42:11.265Z,5.47
2018-09-30T03:43:11.194Z,5.44
2018-09-30T03:44:11.150Z,5.46
2018-09-30T03:45:11.087Z,5.47
2018-09-30T03:46:11.032Z,5.51
2018-09-30T03:47:10.996Z,5.49
2018-09-30T03:48:10.925Z,5.44
2018-09-30T03:49:10.874Z,5.40
2018-09-30T03:50:10.815Z,5.51
2018-09-30T03:51:10.756Z,5.40
2018-09-30T03:52:10.744Z,5.40
2018-09-30T03:53:10.650Z,5.28
2018-09-30T03:54:10.591Z,5.29
2018-09-30T03:55:10.578Z,5.29
2018-09-30T03:56:10.482Z,5.33
2018-09-30T03:57:10.437Z,5.29
2018-09-30T03:58:10.400Z,5.26
2018-09-30T03:59:10.350Z,5.28
2018-09-30T04:00:10.283Z,5.22
2018-09-30T04:01:10.218Z,5.25
2018-09-30T04:02:10.154Z,5.19
2018-09-30T04:03:10.128Z,5.28
2018-09-30T04:04:10.053Z,5.19
2018-09-30T04:05:09.991Z,5.17
2018-09-30T04:06:09.936Z,5.17
2018-09-30T04:07:09.948Z,5.10
2018-09-30T04:08:09.853Z,5.07
2018-09-30T04:09:09.799Z,5.26
2018-09-30T04:10:09.778Z,5.16
2018-09-30T04:11:09.721Z,5.10
2018-09-30T04:12:09.630Z,5.11
2018-09-30T04:13:09.598Z,5.10
2018-09-30T04:14:09.542Z,5.07
2018-09-30T04:15:09.471Z,5.14
2018-09-30T04:16:09.391Z,5.16
2018-09-30T04:17:09.458Z,5.17
2018-09-30T04:18:09.319Z,5.13
2018-09-30T04:19:09.251Z,5.13
2018-09-30T04:20:09.181Z,5.24
2018-09-30T04:21:09.125Z,5.06
2018-09-30T04:22:09.070Z,5.11
2018-09-30T04:23:09.040Z,5.04
2018-09-30T04:24:08.970Z,5.08
2018-09-30T04:25:08.915Z,5.10
2018-09-30T04:26:08.857Z,5.08
2018-09-30T04:27:08.794Z,5.07
2018-09-30T04:28:08.791Z,5.03
2018-09-30T04:29:08.712Z,5.07
2018-09-30T04:30:08.667Z,5.06
2018-09-30T04:31:08.591Z,5.06
2018-09-30T04:32:08.525Z,5.01
2018-09-30T04:33:08.514Z,5.08
2018-09-30T04:34:08.418Z,4.99
2018-09-30T04:35:08.367Z,5.06
2018-09-30T04:36:08.312Z,5.04
2018-09-30T04:37:08.258Z,4.90
2018-09-30T04:38:08.245Z,4.90
2018-09-30T04:39:08.153Z,4.90
2018-09-30T04:40:08.093Z,4.89
2018-09-30T04:41:08.035Z,4.90
2018-09-30T04:42:07.987Z,4.88
2018-09-30T04:43:07.940Z,4.93
2018-09-30T04:44:07.909Z,4.90
2018-09-30T04:45:07.892Z,4.90
2018-09-30T04:46:07.773Z,4.89
2018-09-30T04:47:07.710Z,4.89
2018-09-30T04:48:07.661Z,4.83
2018-09-30T04:49:07.622Z,4.90
2018-09-30T04:50:07.564Z,4.95
2018-09-30T04:51:07.489Z,4.93
2018-09-30T04:52:07.433Z,4.92
2018-09-30T04:53:08.376Z,4.96
2018-09-30T04:54:07.363Z,4.88
2018-09-30T04:55:07.284Z,4.93
2018-09-30T04:56:07.224Z,4.92
2018-09-30T04:57:07.171Z,4.86
2018-09-30T04:58:07.112Z,4.93
2018-09-30T04:59:07.077Z,4.89
2018-09-30T05:00:07.033Z,4.88
2018-09-30T05:01:06.946Z,4.90
2018-09-30T05:02:06.906Z,4.88
2018-09-30T05:03:06.852Z,4.85
2018-09-30T05:04:06.820Z,4.86
2018-09-30T05:05:06.753Z,4.83
2018-09-30T05:06:06.674Z,4.70
2018-09-30T05:07:06.613Z,4.77
2018-09-30T05:08:06.567Z,4.86
2018-09-30T05:09:06.543Z,4.71
2018-09-30T05:10:06.500Z,4.70
2018-09-30T05:11:06.393Z,4.85
2018-09-30T05:12:06.351Z,4.80
2018-09-30T05:13:06.313Z,4.76
2018-09-30T05:14:06.324Z,4.83
2018-09-30T05:15:06.181Z,4.85
2018-09-30T05:16:06.218Z,4.77
2018-09-30T05:17:06.078Z,4.85
2018-09-30T05:18:06.015Z,4.83
2018-09-30T05:19:05.966Z,4.83
2018-09-30T05:20:05.929Z,4.80
2018-09-30T05:21:05.854Z,4.70
2018-09-30T05:22:05.806Z,4.83
2018-09-30T05:23:05.747Z,4.85
2018-09-30T05:24:05.693Z,4.88
2018-09-30T05:25:05.663Z,4.74
2018-09-30T05:26:05.586Z,4.63
2018-09-30T05:27:05.529Z,4.64
2018-09-30T05:28:05.481Z,4.66
2018-09-30T05:29:05.418Z,4.66
2018-09-30T05:30:05.541Z,4.71
2018-09-30T05:31:05.342Z,4.55
2018-09-30T05:32:05.275Z,4.55
2018-09-30T05:33:05.206Z,4.61
2018-09-30T05:34:05.152Z,4.61
2018-09-30T05:35:05.138Z,4.49
2018-09-30T05:36:05.049Z,4.52
2018-09-30T05:37:05.021Z,4.61
2018-09-30T05:38:04.941Z,4.52
2018-09-30T05:39:06.567Z,4.49
2018-09-30T05:40:04.947Z,4.53
2018-09-30T05:41:04.768Z,4.63
2018-09-30T05:42:04.712Z,4.61
2018-09-30T05:43:04.673Z,4.51
2018-09-30T05:44:04.603Z,4.52
2018-09-30T05:45:04.566Z,4.49
2018-09-30T05:46:05.029Z,4.49
2018-09-30T05:47:05.377Z,4.55
2018-09-30T05:48:04.384Z,4.48
2018-09-30T05:49:04.468Z,4.51
2018-09-30T05:50:04.301Z,4.64
2018-09-30T05:51:04.251Z,4.53
2018-09-30T05:52:04.160Z,4.56
2018-09-30T05:53:04.117Z,4.61
2018-09-30T05:54:04.064Z,4.59
2018-09-30T05:55:04.044Z,4.61
2018-09-30T05:56:03.941Z,4.64
2018-09-30T05:57:03.956Z,4.64
2018-09-30T05:58:03.900Z,4.59
2018-09-30T05:59:03.778Z,4.58
2018-09-30T06:00:03.800Z,4.59
2018-09-30T06:01:03.677Z,4.59
2018-09-30T06:02:03.632Z,4.69
2018-09-30T06:03:03.564Z,4.67
2018-09-30T06:04:03.578Z,4.67
2018-09-30T06:05:03.563Z,4.67
2018-09-30T06:06:03.441Z,4.70
2018-09-30T06:07:03.359Z,4.70
2018-09-30T06:08:03.295Z,4.77
2018-09-30T06:09:03.284Z,4.77
2018-09-30T06:10:03.211Z,4.77
2018-09-30T06:11:03.119Z,4.77
2018-09-30T06:12:03.173Z,4.76
2018-09-30T06:13:03.028Z,4.79
2018-09-30T06:14:03.120Z,4.88
2018-09-30T06:15:02.956Z,4.74
2018-09-30T06:16:02.880Z,4.83
2018-09-30T06:17:02.858Z,4.86
2018-09-30T06:18:02.750Z,4.93
2018-09-30T06:19:02.708Z,4.80
2018-09-30T06:20:02.628Z,4.80
2018-09-30T06:21:02.606Z,4.88
2018-09-30T06:22:02.544Z,4.89
2018-09-30T06:23:02.465Z,4.89
2018-09-30T06:24:02.422Z,4.93
2018-09-30T06:25:02.364Z,4.92
2018-09-30T06:26:02.354Z,4.96
2018-09-30T06:27:02.250Z,4.99
2018-09-30T06:28:02.209Z,4.99
2018-09-30T06:29:02.174Z,5.11
2018-09-30T06:30:02.090Z,5.04
2018-09-30T06:31:02.056Z,5.21
2018-09-30T06:32:02.063Z,5.21
2018-09-30T06:33:01.936Z,5.31
2018-09-30T06:34:01.907Z,5.36
2018-09-30T06:35:01.864Z,5.44
2018-09-30T06:36:01.802Z,5.68
2018-09-30T06:37:01.710Z,5.69
2018-09-30T06:38:01.659Z,5.86
2018-09-30T06:39:01.623Z,6.00
2018-09-30T06:40:01.544Z,6.10
2018-09-30T06:41:01.548Z,6.34
2018-09-30T06:42:01.436Z,6.41
2018-09-30T06:43:01.401Z,6.41
2018-09-30T06:44:01.344Z,6.63
2018-09-30T06:45:01.312Z,6.59
2018-09-30T06:46:01.264Z,6.74
2018-09-30T06:47:01.190Z,6.80
2018-09-30T06:48:01.115Z,6.96
2018-09-30T06:49:01.076Z,7.05
2018-09-30T06:50:01.037Z,7.14
2018-09-30T06:51:01.027Z,7.25
2018-09-30T06:52:00.893Z,7.39
2018-09-30T06:53:00.852Z,7.49
2018-09-30T06:54:00.788Z,7.57
2018-09-30T06:55:00.742Z,7.76
2018-09-30T06:56:00.726Z,7.70
2018-09-30T06:57:00.637Z,7.75
2018-09-30T06:58:00.637Z,7.93
2018-09-30T06:59:00.526Z,8.06
2018-09-30T07:00:00.477Z,8.15
2018-09-30T07:01:00.432Z,8.13
2018-09-30T07:02:00.383Z,8.31
2018-09-30T07:03:00.311Z,8.30
2018-09-30T07:04:00.262Z,8.41
2018-09-30T07:05:00.259Z,8.52
2018-09-30T07:06:00.168Z,8.66
2018-09-30T07:07:00.178Z,8.64
2018-09-30T07:08:00.069Z,8.78
2018-09-30T07:09:00.007Z,8.87
2018-09-30T07:09:59.996Z,8.95
2018-09-30T07:10:59.933Z,9.03
2018-09-30T07:11:59.864Z,9.00
2018-09-30T07:12:59.787Z,9.10
2018-09-30T07:13:59.738Z,9.18
2018-09-30T07:14:59.719Z,9.25
2018-09-30T07:15:59.635Z,9.39
2018-09-30T07:16:59.686Z,9.49
2018-09-30T07:17:59.528Z,9.47
2018-09-30T07:18:59.475Z,9.57
2018-09-30T07:19:59.439Z,9.67
2018-09-30T07:20:59.381Z,9.70
2018-09-30T07:21:59.350Z,9.72
2018-09-30T07:22:59.307Z,9.86
2018-09-30T07:23:59.237Z,9.86
2018-09-30T07:24:59.167Z,9.94
2018-09-30T07:25:59.135Z,10.00
2018-09-30T07:26:59.102Z,10.10
2018-09-30T07:27:59.017Z,10.08
2018-09-30T07:28:58.961Z,10.08
2018-09-30T07:29:58.927Z,10.18
2018-09-30T07:30:58.864Z,10.12
2018-09-30T07:31:58.830Z,10.27
2018-09-30T07:32:58.758Z,10.33
2018-09-30T07:33:58.717Z,10.43
2018-09-30T07:34:58.653Z,10.48
2018-09-30T07:35:58.620Z,10.46
2018-09-30T07:36:58.580Z,10.54
2018-09-30T07:37:58.507Z,10.74
2018-09-30T07:38:58.448Z,10.64
2018-09-30T07:39:58.408Z,10.70
2018-09-30T07:40:58.350Z,10.82
2018-09-30T07:41:58.329Z,10.92
2018-09-30T07:42:58.254Z,10.87
2018-09-30T07:43:58.203Z,10.95
2018-09-30T07:44:58.159Z,11.01
2018-09-30T07:45:58.096Z,11.05
2018-09-30T07:46:58.084Z,11.11
2018-09-30T07:47:58.031Z,11.12
2018-09-30T07:48:57.942Z,11.23
2018-09-30T07:49:57.900Z,11.25
2018-09-30T07:50:57.848Z,11.26
2018-09-30T07:51:57.813Z,11.22
2018-09-30T07:52:57.747Z,11.30
2018-09-30T07:53:57.696Z,11.44
2018-09-30T07:54:57.639Z,11.50
2018-09-30T07:55:57.608Z,11.46
2018-09-30T07:56:57.593Z,11.51
2018-09-30T07:57:57.489Z,11.61
2018-09-30T07:58:57.443Z,11.68
2018-09-30T07:59:57.417Z,11.69
2018-09-30T08:00:57.348Z,11.69
2018-09-30T08:01:57.325Z,11.80
2018-09-30T08:02:57.247Z,11.69
2018-09-30T08:03:57.187Z,11.68
2018-09-30T08:04:57.150Z,11.81
2018-09-30T08:05:57.092Z,11.77
2018-09-30T08:06:57.071Z,11.71
2018-09-30T08:07:57.001Z,11.74
2018-09-30T08:08:56.939Z,11.71
2018-09-30T08:09:56.893Z,11.81
2018-09-30T08:10:56.852Z,11.90
2018-09-30T08:11:56.810Z,11.96
2018-09-30T08:12:56.736Z,11.83
2018-09-30T08:13:56.691Z,11.83
2018-09-30T08:14:56.648Z,11.83
2018-09-30T08:15:56.590Z,11.74
2018-09-30T08:16:56.625Z,11.81
2018-09-30T08:17:56.488Z,11.90
2018-09-30T08:18:56.438Z,11.79
2018-09-30T08:19:56.394Z,11.79
2018-09-30T08:20:56.343Z,11.81
2018-09-30T08:21:56.292Z,11.58
2018-09-30T08:22:56.265Z,11.65
2018-09-30T08:23:56.251Z,11.63
2018-09-30T08:24:56.136Z,11.61
2018-09-30T08:25:56.090Z,11.68
2018-09-30T08:26:56.048Z,11.69
2018-09-30T08:27:56.021Z,11.72
2018-09-30T08:28:55.946Z,11.81
2018-09-30T08:29:55.892Z,11.69
2018-09-30T08:30:55.841Z,11.68
2018-09-30T08:31:55.797Z,11.66
2018-09-30T08:32:55.771Z,11.76
2018-09-30T08:33:55.702Z,11.80
2018-09-30T08:34:55.647Z,11.81
2018-09-30T08:35:55.593Z,11.87
2018-09-30T08:36:55.547Z,11.91
2018-09-30T08:37:55.511Z,11.91
2018-09-30T08:38:55.446Z,11.97
2018-09-30T08:39:55.441Z,12.07
2018-09-30T08:40:55.342Z,12.05
2018-09-30T08:41:55.296Z,12.05
2018-09-30T08:42:55.266Z,11.97
2018-09-30T08:43:55.266Z,12.02
2018-09-30T08:44:55.150Z,11.99
2018-09-30T08:45:55.216Z,12.06
2018-09-30T08:46:55.044Z,12.10
2018-09-30T08:47:55.022Z,12.09
2018-09-30T08:48:54.940Z,12.14
2018-09-30T08:49:54.890Z,12.18
2018-09-30T08:50:54.841Z,12.22
2018-09-30T08:51:54.803Z,12.17
2018-09-30T08:52:54.767Z,12.22
2018-09-30T08:53:54.707Z,12.33
2018-09-30T08:54:54.644Z,12.35
2018-09-30T08:55:54.636Z,12.42
2018-09-30T08:56:54.557Z,12.51
2018-09-30T08:57:54.537Z,12.61
2018-09-30T08:58:54.443Z,12.65
2018-09-30T08:59:54.414Z,12.75
2018-09-30T09:00:54.340Z,12.78
2018-09-30T09:01:54.308Z,12.73
2018-09-30T09:02:54.300Z,12.80
2018-09-30T09:03:54.200Z,12.75
2018-09-30T09:04:54.149Z,12.87
2018-09-30T09:05:54.102Z,12.83
2018-09-30T09:06:54.057Z,12.98
2018-09-30T09:07:54.034Z,12.94
2018-09-30T09:08:53.955Z,12.91
2018-09-30T09:09:53.967Z,12.94
2018-09-30T09:10:53.870Z,12.97
2018-09-30T09:11:53.798Z,12.97
2018-09-30T09:12:53.787Z,13.03
2018-09-30T09:13:53.702Z,13.05
2018-09-30T09:14:53.658Z,13.03
2018-09-30T09:15:53.600Z,13.08
2018-09-30T09:16:53.550Z,13.12
2018-09-30T09:17:53.501Z,13.09
2018-09-30T09:18:53.478Z,13.09
2018-09-30T09:19:53.416Z,13.13
2018-09-30T09:20:53.360Z,13.13
2018-09-30T09:21:53.316Z,13.12
2018-09-30T09:22:53.351Z,13.18
2018-09-30T09:23:53.232Z,13.16
2018-09-30T09:24:53.178Z,13.22
2018-09-30T09:25:53.122Z,13.18
2018-09-30T09:26:53.057Z,13.18
2018-09-30T09:27:53.011Z,13.19
2018-09-30T09:28:53.024Z,13.18
2018-09-30T09:29:52.909Z,13.29
2018-09-30T09:30:52.861Z,13.22
2018-09-30T09:31:52.851Z,13.13
2018-09-30T09:32:52.775Z,13.24
2018-09-30T09:33:52.786Z,13.22
2018-09-30T09:34:52.670Z,13.15
2018-09-30T09:35:52.628Z,13.21
2018-09-30T09:36:52.570Z,13.24
2018-09-30T09:37:52.522Z,13.16
2018-09-30T09:38:52.506Z,13.27
2018-09-30T09:39:52.426Z,13.30
2018-09-30T09:40:52.375Z,13.41
2018-09-30T09:41:52.323Z,13.50
2018-09-30T09:42:52.265Z,13.53
2018-09-30T09:43:52.250Z,13.49
2018-09-30T09:44:52.199Z,13.33
2018-09-30T09:45:52.120Z,13.38
2018-09-30T09:46:52.131Z,13.43
2018-09-30T09:47:52.043Z,13.35
2018-09-30T09:48:52.024Z,13.39
2018-09-30T09:49:51.946Z,13.43
2018-09-30T09:50:51.870Z,13.45
2018-09-30T09:51:51.832Z,13.45
2018-09-30T09:52:51.811Z,13.46
2018-09-30T09:53:51.727Z,13.50
2018-09-30T09:54:51.704Z,13.60
2018-09-30T09:55:51.645Z,13.70
2018-09-30T09:56:51.574Z,13.67
2018-09-30T09:57:51.542Z,13.63
2018-09-30T09:58:51.573Z,13.72
2018-09-30T09:59:51.476Z,13.57
2018-09-30T10:00:51.380Z,13.70
2018-09-30T10:01:51.346Z,13.70
2018-09-30T10:02:51.286Z,13.65
2018-09-30T10:03:51.233Z,13.64
2018-09-30T10:04:51.232Z,13.72
2018-09-30T10:05:51.159Z,13.77
2018-09-30T10:06:51.091Z,13.88
2018-09-30T10:07:51.058Z,13.86
2018-09-30T10:08:50.991Z,13.86
2018-09-30T10:09:51.038Z,13.92
2018-09-30T10:10:50.888Z,13.89
2018-09-30T10:11:50.869Z,13.96
2018-09-30T10:12:50.807Z,14.01
2018-09-30T10:13:50.747Z,13.96
2018-09-30T10:14:50.735Z,14.01
2018-09-30T10:15:50.643Z,14.10
2018-09-30T10:16:50.606Z,14.10
2018-09-30T10:17:50.543Z,14.15
2018-09-30T10:18:50.506Z,14.19
2018-09-30T10:19:50.509Z,14.15
2018-09-30T10:20:50.406Z,14.19
2018-09-30T10:21:50.366Z,14.15
2018-09-30T10:22:50.317Z,14.18
2018-09-30T10:23:50.261Z,14.20
2018-09-30T10:24:50.235Z,14.23
2018-09-30T10:25:50.168Z,14.23
2018-09-30T10:26:50.135Z,14.37
2018-09-30T10:27:50.074Z,14.40
2018-09-30T10:28:50.005Z,14.33
2018-09-30T10:29:50.000Z,14.40
2018-09-30T10:30:49.919Z,14.36
2018-09-30T10:31:49.884Z,14.41
2018-09-30T10:32:49.835Z,14.41
2018-09-30T10:33:49.786Z,14.37
2018-09-30T10:34:49.758Z,14.40
2018-09-30T10:35:49.671Z,14.29
2018-09-30T10:36:50.029Z,14.30
2018-09-30T10:37:49.570Z,14.37
2018-09-30T10:38:49.592Z,14.43
2018-09-30T10:39:49.498Z,14.43
2018-09-30T10:40:49.445Z,14.32
2018-09-30T10:41:49.374Z,14.41
2018-09-30T10:42:49.316Z,14.43
2018-09-30T10:43:49.269Z,14.48
2018-09-30T10:44:49.240Z,14.50
2018-09-30T10:45:49.206Z,14.41
2018-09-30T10:46:49.161Z,14.45
2018-09-30T10:47:49.084Z,14.47
2018-09-30T10:48:49.024Z,14.51
2018-09-30T10:49:48.974Z,14.50
2018-09-30T10:50:48.952Z,14.50
2018-09-30T10:51:48.886Z,14.56
2018-09-30T10:52:48.837Z,14.48
2018-09-30T10:53:48.776Z,14.47
2018-09-30T10:54:48.755Z,14.51
2018-09-30T10:55:48.728Z,14.51
2018-09-30T10:56:48.662Z,14.56
2018-09-30T10:57:48.579Z,14.65
2018-09-30T10:58:48.542Z,14.65
2018-09-30T10:59:48.488Z,14.73
2018-09-30T11:00:48.464Z,14.65
2018-09-30T11:01:48.392Z,14.63
2018-09-30T11:02:48.335Z,14.61
2018-09-30T11:03:48.293Z,14.74
2018-09-30T11:04:48.243Z,14.84
2018-09-30T11:05:48.235Z,14.79
2018-09-30T11:06:48.149Z,14.85
2018-09-30T11:07:48.097Z,14.91
2018-09-30T11:08:48.066Z,14.79
2018-09-30T11:09:48.090Z,14.81
2018-09-30T11:10:47.983Z,14.74
2018-09-30T11:11:47.917Z,14.65
2018-09-30T11:12:47.861Z,14.78
2018-09-30T11:13:47.807Z,14.70
2018-09-30T11:14:47.754Z,14.82
2018-09-30T11:15:47.729Z,14.78
2018-09-30T11:16:47.655Z,14.85
2018-09-30T11:17:47.620Z,14.78
2018-09-30T11:18:47.574Z,14.81
2018-09-30T11:19:47.525Z,14.84
2018-09-30T11:20:47.481Z,14.87
2018-09-30T11:21:47.408Z,14.85
2018-09-30T11:22:47.362Z,14.82
2018-09-30T11:23:47.327Z,14.84
2018-09-30T11:24:47.271Z,14.96
2018-09-30T11:25:47.256Z,14.96
2018-09-30T11:26:47.169Z,14.93
2018-09-30T11:27:47.112Z,14.95
2018-09-30T11:28:47.071Z,14.96
2018-09-30T11:29:47.017Z,14.96
2018-09-30T11:30:47.014Z,14.91
2018-09-30T11:31:46.986Z,14.96
2018-09-30T11:32:46.871Z,15.02
2018-09-30T11:33:46.820Z,14.97
2018-09-30T11:34:46.778Z,14.97
2018-09-30T11:35:46.724Z,15.07
2018-09-30T11:36:46.704Z,15.00
2018-09-30T11:37:46.632Z,15.04
2018-09-30T11:38:46.582Z,15.15
2018-09-30T11:39:46.537Z,15.17
2018-09-30T11:40:46.476Z,15.17
2018-09-30T11:41:46.454Z,15.17
2018-09-30T11:42:46.436Z,15.19
2018-09-30T11:43:46.335Z,15.14
2018-09-30T11:44:46.286Z,15.19
2018-09-30T11:45:46.235Z,15.21
2018-09-30T11:46:46.219Z,15.24
2018-09-30T11:47:46.134Z,15.25
2018-09-30T11:48:46.092Z,15.27
2018-09-30T11:49:46.041Z,15.43
2018-09-30T11:50:45.988Z,15.40
2018-09-30T11:51:45.958Z,15.42
2018-09-30T11:52:45.951Z,15.30
2018-09-30T11:53:45.850Z,15.39
2018-09-30T11:54:45.798Z,15.42
2018-09-30T11:55:45.745Z,15.37
2018-09-30T11:56:45.722Z,15.39
2018-09-30T11:57:45.647Z,15.46
2018-09-30T11:58:45.607Z,15.48
2018-09-30T11:59:45.556Z,15.42
2018-09-30T12:00:45.505Z,15.54
2018-09-30T12:01:45.497Z,15.54
2018-09-30T12:02:45.409Z,15.54
2018-09-30T12:03:45.370Z,15.58
2018-09-30T12:04:45.316Z,15.55
2018-09-30T12:05:45.269Z,15.58
2018-09-30T12:06:45.253Z,15.61
2018-09-30T12:07:45.165Z,15.58
2018-09-30T12:08:45.142Z,15.62
2018-09-30T12:09:45.068Z,15.61
2018-09-30T12:10:45.022Z,15.54
2018-09-30T12:11:44.965Z,15.62
2018-09-30T12:12:44.942Z,15.61
2018-09-30T12:13:44.866Z,15.60
2018-09-30T12:14:44.822Z,15.60
2018-09-30T12:15:44.768Z,15.48
2018-09-30T12:16:44.724Z,15.57
2018-09-30T12:17:44.697Z,15.54
2018-09-30T12:18:44.707Z,15.50
2018-09-30T12:19:44.587Z,15.50
2018-09-30T12:20:44.540Z,15.54
2018-09-30T12:21:44.485Z,15.54
2018-09-30T12:22:44.469Z,15.50
2018-09-30T12:23:44.385Z,15.51
2018-09-30T12:24:44.334Z,15.52
2018-09-30T12:25:44.318Z,15.64
2018-09-30T12:26:44.241Z,15.58
2018-09-30T12:27:44.206Z,15.69
2018-09-30T12:28:44.141Z,15.57
2018-09-30T12:29:44.094Z,15.57
2018-09-30T12:30:44.045Z,15.58
2018-09-30T12:31:43.987Z,15.60
2018-09-30T12:32:43.980Z,15.58
2018-09-30T12:33:43.899Z,15.60
2018-09-30T12:34:43.843Z,15.70
2018-09-30T12:35:43.795Z,15.60
2018-09-30T12:36:43.772Z,15.64
2018-09-30T12:37:43.730Z,15.68
2018-09-30T12:38:43.656Z,15.68
2018-09-30T12:39:43.604Z,15.65
2018-09-30T12:40:43.554Z,15.57
2018-09-30T12:41:43.509Z,15.57
2018-09-30T12:42:43.511Z,15.57
2018-09-30T12:43:43.427Z,15.62
2018-09-30T12:44:43.371Z,15.57
2018-09-30T12:45:43.321Z,15.62
2018-09-30T12:46:43.275Z,15.70
2018-09-30T12:47:43.217Z,15.70
2018-09-30T12:48:43.207Z,15.69
2018-09-30T12:49:43.121Z,15.70
2018-09-30T12:50:43.068Z,15.69
2018-09-30T12:51:43.023Z,15.73
2018-09-30T12:52:42.970Z,15.73
2018-09-30T12:53:42.955Z,15.68
2018-09-30T12:54:42.876Z,15.72
2018-09-30T12:55:42.847Z,15.76
2018-09-30T12:56:42.784Z,15.76
2018-09-30T12:57:42.750Z,15.77
2018-09-30T12:58:42.718Z,15.76
2018-09-30T12:59:42.645Z,15.83
2018-09-30T13:00:42.602Z,15.82
2018-09-30T13:01:42.553Z,15.88
2018-09-30T13:02:42.478Z,15.94
2018-09-30T13:03:42.470Z,15.92
2018-09-30T13:04:42.382Z,15.91
2018-09-30T13:05:42.367Z,15.90
2018-09-30T13:06:42.287Z,15.92